Time;durP1;ratioP1;P1;durP2;ratioP2;P2;SDS_P1;SDS_P2;PMS_P1;PMS_P2;Temp;Humidity;BMP_temperature;BMP_pressure;BME280_temperature;BME280_humidity;BME280_pressure;Samples;Min_cycle;Max_cycle;Signal;HPM_P1;HPM_P2
2021/11/29 00:01:10;;;;;;;18.70;11.73;;;;;;;2.48;76.27;97403.59;2619067;54;20044;-69
2021/11/29 00:03:40;;;;;;;17.50;12.57;;;;;;;2.49;76.17;97397.41;2619790;39;20446;-69
2021/11/29 00:06:10;;;;;;;18.20;12.95;;;;;;;2.51;76.26;97405.84;2618673;47;20030;-69
2021/11/29 00:08:40;;;;;;;20.13;12.90;;;;;;;2.58;76.15;97408.59;2618267;47;20557;-68
2021/11/29 00:11:10;;;;;;;20.90;14.45;;;;;;;2.51;75.76;97412.88;2617949;39;20457;-68
2021/11/29 00:13:40;;;;;;;20.38;12.95;;;;;;;2.49;75.99;97431.31;2619223;39;20469;-68
2021/11/29 00:16:12;;;;;;;18.88;13.45;;;;;;;2.55;76.06;97427.19;2619958;47;20078;-68
2021/11/29 00:18:43;;;;;;;17.35;12.32;;;;;;;2.49;75.72;97433.94;2621715;54;20046;-68
2021/11/29 00:21:14;;;;;;;19.05;13.18;;;;;;;2.47;75.84;97430.66;2619622;54;20037;-69
2021/11/29 00:23:45;;;;;;;20.13;13.52;;;;;;;2.48;75.48;97430.47;2619878;39;20430;-68
2021/11/29 00:26:15;;;;;;;18.13;12.18;;;;;;;2.44;75.76;97436.22;2619476;54;20038;-68
2021/11/29 00:28:46;;;;;;;17.95;12.95;;;;;;;2.41;75.75;97436.59;2618782;54;20557;-70
2021/11/29 00:31:18;;;;;;;19.00;12.60;;;;;;;2.49;75.86;97439.16;2618618;54;20114;-67
2021/11/29 00:33:48;;;;;;;19.55;13.10;;;;;;;2.48;75.67;97446.13;2618389;54;20031;-69
2021/11/29 00:36:18;;;;;;;20.80;13.88;;;;;;;2.47;75.62;97444.53;2619054;54;20034;-68
2021/11/29 00:38:47;;;;;;;16.77;12.23;;;;;;;2.42;75.68;97446.03;2619027;54;20042;-69
2021/11/29 00:41:17;;;;;;;20.67;13.10;;;;;;;2.45;75.83;97456.94;2618664;39;20565;-68
2021/11/29 00:43:47;;;;;;;18.73;12.32;;;;;;;2.47;75.72;97459.38;2619295;54;20038;-69
2021/11/29 00:46:19;;;;;;;18.55;12.40;;;;;;;2.49;75.57;97454.78;2618953;54;20077;-68
2021/11/29 00:48:49;;;;;;;17.58;12.55;;;;;;;2.57;75.63;97461.72;2619421;54;20034;-67
2021/11/29 00:51:19;;;;;;;17.45;12.25;;;;;;;2.63;75.72;97466.25;2620426;54;20044;-68
2021/11/29 00:53:49;;;;;;;18.33;12.93;;;;;;;2.61;75.62;97463.00;2624164;54;20033;-68
2021/11/29 00:56:21;;;;;;;19.20;13.38;;;;;;;2.54;75.77;97473.34;2620100;54;20026;-67
2021/11/29 00:58:51;;;;;;;21.20;13.52;;;;;;;2.52;75.96;97477.91;2618445;47;20030;-67
2021/11/29 01:01:24;;;;;;;17.52;12.00;;;;;;;2.64;76.14;97473.91;2618878;54;20034;-67
2021/11/29 01:03:53;;;;;;;17.38;12.32;;;;;;;2.66;75.88;97478.97;2618958;54;20035;-67
2021/11/29 01:06:23;;;;;;;20.58;13.05;;;;;;;2.56;75.89;97486.19;2619036;54;20749;-67
2021/11/29 01:08:53;;;;;;;19.25;12.73;;;;;;;2.41;75.98;97486.97;2619177;54;20030;-67
2021/11/29 01:11:23;;;;;;;19.08;12.77;;;;;;;2.37;76.38;97485.69;2618314;54;20037;-67
2021/11/29 01:13:53;;;;;;;19.02;12.90;;;;;;;2.34;76.76;97493.03;2618491;54;20566;-68
2021/11/29 01:16:25;;;;;;;20.08;13.73;;;;;;;2.39;76.48;97503.75;2619104;54;20042;-68
2021/11/29 01:18:55;;;;;;;20.63;13.23;;;;;;;2.37;76.88;97500.53;2619292;47;20034;-68
2021/11/29 01:21:25;;;;;;;21.90;13.23;;;;;;;2.34;76.73;97500.88;2619809;54;20044;-67
2021/11/29 01:23:55;;;;;;;22.13;13.77;;;;;;;2.37;77.06;97500.53;2624362;54;20039;-67
2021/11/29 01:26:24;;;;;;;22.30;13.68;;;;;;;2.45;77.04;97498.69;2624807;54;20035;-68
2021/11/29 01:28:54;;;;;;;18.58;12.65;;;;;;;2.50;76.43;97498.16;2629199;39;20527;-68
2021/11/29 01:31:26;;;;;;;19.33;12.38;;;;;;;2.52;76.43;97504.00;2625048;54;20099;-68
2021/11/29 01:33:56;;;;;;;20.30;13.73;;;;;;;2.49;76.25;97501.75;2625580;39;20496;-68
2021/11/29 01:36:26;;;;;;;19.40;13.07;;;;;;;2.43;76.56;97498.03;2620254;54;20026;-68
2021/11/29 01:38:56;;;;;;;20.38;13.30;;;;;;;2.41;76.71;97502.63;2618445;54;20030;-68
2021/11/29 01:41:26;;;;;;;20.27;13.07;;;;;;;2.34;77.06;97495.66;2618335;47;20027;-67
2021/11/29 01:43:55;;;;;;;20.70;14.32;;;;;;;2.34;76.81;97501.66;2618716;54;20034;-68
2021/11/29 01:46:28;;;;;;;22.20;13.95;;;;;;;2.34;77.25;97503.47;2618999;54;20045;-69
2021/11/29 01:48:57;;;;;;;20.70;13.35;;;;;;;2.40;76.96;97513.19;2618678;54;20577;-68
2021/11/29 01:51:27;;;;;;;21.17;13.95;;;;;;;2.39;76.91;97511.59;2618817;54;20042;-67
2021/11/29 01:53:57;;;;;;;23.17;13.48;;;;;;;2.42;76.87;97516.47;2618171;47;20042;-67
2021/11/29 01:56:27;;;;;;;20.17;13.23;;;;;;;2.39;77.03;97516.81;2618466;54;20038;-67
2021/11/29 01:58:57;;;;;;;21.77;13.65;;;;;;;2.35;76.85;97524.16;2618563;54;20030;-67
2021/11/29 02:01:29;;;;;;;20.67;13.32;;;;;;;2.33;76.90;97526.13;2618434;54;20122;-67
2021/11/29 02:04:01;;;;;;;20.23;13.38;;;;;;;2.34;77.16;97524.34;2618926;54;20114;-67
2021/11/29 02:06:33;;;;;;;22.48;13.85;;;;;;;2.36;76.83;97525.75;2618775;54;20034;-67
2021/11/29 02:09:06;;;;;;;21.85;14.00;;;;;;;2.36;76.46;97527.56;2618749;54;20548;-68
2021/11/29 02:11:36;;;;;;;22.38;13.93;;;;;;;2.36;77.03;97536.19;2618948;54;20592;-67
2021/11/29 02:14:06;;;;;;;20.48;13.13;;;;;;;2.29;76.60;97537.88;2618803;54;20042;-67
2021/11/29 02:16:38;;;;;;;20.98;13.52;;;;;;;2.31;76.82;97533.31;2617153;54;20149;-67
2021/11/29 02:19:10;;;;;;;21.58;14.00;;;;;;;2.31;76.54;97532.50;2618002;54;20038;-67
2021/11/29 02:21:42;;;;;;;23.23;13.23;;;;;;;2.37;76.71;97537.03;2619322;47;20033;-67
2021/11/29 02:24:12;;;;;;;22.02;14.32;;;;;;;2.32;76.17;97542.75;2620760;54;20042;-67
2021/11/29 02:26:41;;;;;;;21.92;14.35;;;;;;;2.22;76.53;97545.56;2621506;54;20034;-67
2021/11/29 02:29:15;;;;;;;21.65;14.07;;;;;;;2.22;76.39;97550.78;2621993;54;20033;-67
2021/11/29 02:31:46;;;;;;;30.30;14.13;;;;;;;2.23;76.71;97546.38;2621283;54;20041;-66
2021/11/29 02:34:18;;;;;;;22.45;14.20;;;;;;;2.19;76.77;97550.31;2619316;54;20089;-67
2021/11/29 02:36:54;;;;;;;21.92;13.55;;;;;;;2.16;76.52;97558.47;2620869;54;20023;-67
2021/11/29 02:39:24;;;;;;;21.67;13.65;;;;;;;2.16;76.73;97548.03;2620156;54;20030;-68
2021/11/29 02:41:57;;;;;;;23.90;14.68;;;;;;;2.12;76.96;97565.00;2620825;54;20026;-67
2021/11/29 02:44:27;;;;;;;21.00;13.23;;;;;;;2.13;76.99;97564.03;2619830;54;20035;-67
2021/11/29 02:46:57;;;;;;;22.08;14.13;;;;;;;2.15;77.03;97554.25;2619657;51;20034;-67
2021/11/29 02:49:27;;;;;;;22.08;13.98;;;;;;;2.16;76.79;97554.09;2620557;54;20054;-67
2021/11/29 02:52:01;;;;;;;22.00;14.15;;;;;;;2.14;76.93;97563.06;2619870;54;20061;-67
2021/11/29 02:54:33;;;;;;;19.83;13.70;;;;;;;2.10;76.78;97573.00;2619064;51;20031;-68
2021/11/29 02:57:05;;;;;;;21.63;13.55;;;;;;;2.06;76.95;97570.91;2619318;54;20038;-68
2021/11/29 02:59:37;;;;;;;21.75;14.43;;;;;;;2.07;76.86;97573.31;2618224;47;20034;-67
2021/11/29 03:02:09;;;;;;;20.92;13.25;;;;;;;2.08;76.81;97577.59;2618142;47;20023;-67
2021/11/29 03:04:40;;;;;;;23.65;13.93;;;;;;;2.09;76.71;97576.59;2618649;54;20057;-67
2021/11/29 03:07:13;;;;;;;21.52;13.02;;;;;;;2.10;76.75;97583.44;2619302;54;20049;-69
2021/11/29 03:09:43;;;;;;;22.95;13.27;;;;;;;2.09;76.58;97596.66;2618351;47;20549;-67
2021/11/29 03:12:13;;;;;;;21.17;12.45;;;;;;;2.02;76.36;97598.28;2619247;46;20058;-67
2021/11/29 03:14:43;;;;;;;20.67;13.20;;;;;;;2.03;76.67;97595.50;2618079;54;20034;-68
2021/11/29 03:17:13;;;;;;;19.67;13.27;;;;;;;2.04;76.56;97597.16;2619447;54;20026;-69
2021/11/29 03:19:45;;;;;;;22.90;14.05;;;;;;;2.01;76.61;97599.28;2620531;54;20030;-68
2021/11/29 03:22:17;;;;;;;23.65;14.15;;;;;;;1.89;76.38;97604.84;2620715;39;20086;-68
2021/11/29 03:24:46;;;;;;;26.00;13.60;;;;;;;1.82;76.59;97614.28;2618598;54;20030;-68
2021/11/29 03:27:17;;;;;;;22.60;13.02;;;;;;;1.76;76.68;97603.75;2617984;51;20038;-68
2021/11/29 03:29:49;;;;;;;24.75;14.25;;;;;;;1.75;76.42;97608.09;2619233;54;20082;-68
2021/11/29 03:32:21;;;;;;;23.98;13.45;;;;;;;1.60;76.36;97610.59;2619822;47;20038;-68
2021/11/29 03:34:52;;;;;;;25.27;13.93;;;;;;;1.46;76.70;97625.06;2618965;54;20041;-67
2021/11/29 03:37:24;;;;;;;21.95;13.07;;;;;;;1.43;76.93;97624.63;2618313;39;20453;-68
2021/11/29 03:39:54;;;;;;;26.63;13.43;;;;;;;1.46;77.24;97632.88;2618454;54;20063;-68
2021/11/29 03:42:24;;;;;;;20.02;13.35;;;;;;;1.52;77.28;97635.84;2617595;54;20030;-68
2021/11/29 03:44:55;;;;;;;21.98;12.85;;;;;;;1.55;76.95;97638.94;2618283;54;20039;-67
2021/11/29 03:47:25;;;;;;;21.08;12.95;;;;;;;1.56;77.03;97631.94;2617826;54;20057;-69
2021/11/29 03:49:55;;;;;;;24.98;13.75;;;;;;;1.59;76.53;97626.38;2618560;54;20049;-68
2021/11/29 03:52:27;;;;;;;21.67;13.00;;;;;;;1.60;76.88;97633.22;2619020;54;20038;-69
2021/11/29 03:54:57;;;;;;;23.73;13.63;;;;;;;1.57;76.77;97631.75;2619469;54;20045;-69
2021/11/29 03:57:26;;;;;;;25.42;12.95;;;;;;;1.58;76.64;97642.97;2619403;54;20546;-69
2021/11/29 03:59:56;;;;;;;21.20;13.90;;;;;;;1.53;76.45;97645.28;2619843;54;20034;-70
2021/11/29 04:02:26;;;;;;;20.42;13.65;;;;;;;1.39;76.48;97647.56;2618617;54;20054;-69
2021/11/29 04:04:56;;;;;;;23.48;13.50;;;;;;;1.40;76.68;97645.78;2619274;47;20035;-69
2021/11/29 04:07:28;;;;;;;24.55;13.23;;;;;;;1.43;76.60;97659.28;2619265;48;20061;-69
2021/11/29 04:09:58;;;;;;;21.95;13.25;;;;;;;1.44;76.83;97658.28;2618828;47;20046;-69
2021/11/29 04:12:27;;;;;;;18.92;12.00;;;;;;;1.45;76.40;97662.53;2619416;39;20458;-69
2021/11/29 04:14:57;;;;;;;22.15;11.95;;;;;;;1.36;76.04;97670.50;2618797;54;20034;-69
2021/11/29 04:17:27;;;;;;;17.50;12.05;;;;;;;1.32;76.45;97671.81;2618792;47;20027;-69
2021/11/29 04:19:57;;;;;;;20.75;12.52;;;;;;;1.29;76.57;97675.53;2619917;39;20439;-69
2021/11/29 04:22:29;;;;;;;22.40;12.13;;;;;;;1.26;76.42;97681.06;2618696;54;20553;-70
2021/11/29 04:25:02;;;;;;;20.25;11.95;;;;;;;1.18;76.68;97684.50;2618989;47;20023;-69
2021/11/29 04:27:32;;;;;;;22.70;11.43;;;;;;;1.18;76.73;97691.44;2619369;54;20038;-69
2021/11/29 04:30:06;;;;;;;17.98;11.50;;;;;;;1.21;76.63;97696.34;2618564;54;20057;-69
2021/11/29 04:32:35;;;;;;;18.10;11.18;;;;;;;1.23;76.22;97697.03;2618360;54;20030;-69
2021/11/29 04:35:06;;;;;;;19.00;11.30;;;;;;;1.26;76.74;97701.88;2619114;39;20395;-69
2021/11/29 04:37:40;;;;;;;29.95;11.35;;;;;;;1.24;76.52;97703.84;2618438;47;20050;-68
2021/11/29 04:40:11;;;;;;;25.77;12.27;;;;;;;1.23;76.42;97707.44;2618468;47;20022;-68
2021/11/29 04:42:41;;;;;;;19.02;11.38;;;;;;;1.19;76.38;97709.53;2619169;54;20041;-68
2021/11/29 04:45:12;;;;;;;20.30;10.75;;;;;;;1.17;76.48;97713.25;2619151;39;20442;-68
2021/11/29 04:47:41;;;;;;;14.60;10.52;;;;;;;1.17;76.31;97705.44;2619422;54;20549;-68
2021/11/29 04:50:11;;;;;;;16.58;10.35;;;;;;;1.13;76.28;97709.34;2618621;47;20060;-67
2021/11/29 04:52:44;;;;;;;18.17;11.23;;;;;;;1.04;76.67;97708.53;2618498;54;20045;-67
2021/11/29 04:55:14;;;;;;;18.98;11.70;;;;;;;1.03;76.54;97713.91;2619021;54;20038;-67
2021/11/29 04:57:45;;;;;;;17.70;10.73;;;;;;;0.97;76.38;97717.94;2619120;54;20034;-67
2021/11/29 05:00:21;;;;;;;17.55;10.05;;;;;;;0.89;76.68;97713.50;2618922;47;20030;-67
2021/11/29 05:02:51;;;;;;;23.98;11.15;;;;;;;0.87;76.72;97715.47;2619455;39;20426;-67
2021/11/29 05:05:21;;;;;;;23.08;12.23;;;;;;;0.92;76.65;97725.41;2619009;54;20038;-67
2021/11/29 05:07:54;;;;;;;25.23;14.20;;;;;;;0.92;76.84;97733.22;2618925;54;20064;-68
2021/11/29 05:10:23;;;;;;;19.23;12.18;;;;;;;0.91;76.45;97731.59;2618936;54;20045;-67
2021/11/29 05:12:53;;;;;;;21.63;11.40;;;;;;;0.85;76.62;97735.63;2617950;54;20026;-68
2021/11/29 05:15:22;;;;;;;19.52;10.68;;;;;;;0.87;76.29;97745.88;2618799;54;20034;-68
2021/11/29 05:17:52;;;;;;;16.38;10.70;;;;;;;0.83;76.67;97749.78;2618936;54;20081;-67
2021/11/29 05:20:27;;;;;;;16.85;9.68;;;;;;;0.77;76.56;97748.59;2618842;54;20057;-67
2021/11/29 05:22:59;;;;;;;19.00;11.15;;;;;;;0.81;76.78;97754.31;2618107;54;20081;-68
2021/11/29 05:25:28;;;;;;;15.60;10.00;;;;;;;0.77;76.65;97758.19;2618996;54;20038;-67
2021/11/29 05:27:58;;;;;;;20.15;11.13;;;;;;;0.70;76.23;97760.63;2619448;54;20046;-67
2021/11/29 05:30:28;;;;;;;19.05;11.32;;;;;;;0.65;76.57;97760.25;2618948;54;20042;-68
2021/11/29 05:32:58;;;;;;;18.60;10.60;;;;;;;0.72;76.66;97774.25;2623684;39;20454;-68
2021/11/29 05:35:27;;;;;;;22.02;11.60;;;;;;;0.73;76.91;97779.31;2623303;54;20033;-67
2021/11/29 05:38:00;;;;;;;19.85;11.20;;;;;;;0.65;76.54;97784.50;2623681;39;20421;-68
2021/11/29 05:40:30;;;;;;;20.55;11.38;;;;;;;0.56;76.44;97781.97;2623806;39;20434;-68
2021/11/29 05:43:00;;;;;;;19.35;11.43;;;;;;;0.53;76.86;97790.09;2622499;54;20034;-68
2021/11/29 05:45:30;;;;;;;19.50;11.13;;;;;;;0.60;77.04;97794.53;2620651;54;20031;-68
2021/11/29 05:47:59;;;;;;;17.50;10.85;;;;;;;0.67;77.06;97797.31;2618044;54;20023;-67
2021/11/29 05:50:29;;;;;;;16.40;10.57;;;;;;;0.71;77.04;97806.47;2618729;54;20098;-67
2021/11/29 05:53:01;;;;;;;17.65;10.77;;;;;;;0.70;76.86;97792.63;2618564;54;20038;-67
2021/11/29 05:55:31;;;;;;;17.73;10.35;;;;;;;0.67;76.73;97802.53;2618809;54;20046;-67
2021/11/29 05:58:01;;;;;;;19.27;10.38;;;;;;;0.66;76.28;97800.91;2618199;54;20053;-67
2021/11/29 06:00:31;;;;;;;20.30;11.13;;;;;;;0.68;76.64;97807.56;2619119;54;20027;-68
2021/11/29 06:03:03;;;;;;;22.02;11.60;;;;;;;0.70;76.30;97821.25;2621932;54;20073;-67
2021/11/29 06:05:34;;;;;;;18.00;10.98;;;;;;;0.66;76.61;97821.72;2619992;47;20069;-68
2021/11/29 06:08:07;;;;;;;19.83;10.00;;;;;;;0.70;76.55;97828.25;2623401;39;20438;-69
2021/11/29 06:10:36;;;;;;;17.95;11.13;;;;;;;0.73;76.87;97823.56;2622535;54;20042;-68
2021/11/29 06:13:06;;;;;;;24.50;11.90;;;;;;;0.81;76.70;97829.75;2622814;54;20038;-68
2021/11/29 06:15:36;;;;;;;21.20;10.75;;;;;;;0.80;76.17;97839.34;2617607;54;20553;-68
2021/11/29 06:18:06;;;;;;;19.60;11.50;;;;;;;0.79;76.06;97842.13;2618874;54;20046;-69
2021/11/29 06:20:35;;;;;;;21.63;11.63;;;;;;;0.79;75.88;97844.72;2619285;54;20035;-68
2021/11/29 06:23:10;;;;;;;16.98;10.68;;;;;;;0.78;76.26;97853.50;2618933;54;20037;-68
2021/11/29 06:25:40;;;;;;;20.85;10.98;;;;;;;0.72;75.95;97858.31;2618872;54;20042;-68
2021/11/29 06:28:10;;;;;;;18.67;10.32;;;;;;;0.69;75.75;97860.41;2619176;54;20030;-69
2021/11/29 06:30:40;;;;;;;19.30;10.13;;;;;;;0.60;75.62;97866.53;2618582;47;20577;-69
2021/11/29 06:33:09;;;;;;;21.02;10.63;;;;;;;0.50;76.08;97866.63;2618360;47;20022;-68
2021/11/29 06:35:39;;;;;;;15.07;9.80;;;;;;;0.47;76.05;97872.94;2619339;46;20053;-69
2021/11/29 06:38:11;;;;;;;25.50;10.55;;;;;;;0.44;75.93;97877.63;2618632;47;20034;-68
2021/11/29 06:40:47;;;;;;;17.75;9.60;;;;;;;0.52;75.95;97874.28;2618899;47;20027;-68
2021/11/29 06:43:16;;;;;;;16.95;9.75;;;;;;;0.57;76.26;97890.22;2618540;54;20041;-69
2021/11/29 06:45:46;;;;;;;15.88;9.20;;;;;;;0.68;76.20;97887.41;2619260;54;20569;-69
2021/11/29 06:48:16;;;;;;;18.60;8.80;;;;;;;0.67;75.82;97889.19;2618792;54;20073;-69
2021/11/29 06:50:46;;;;;;;16.92;9.43;;;;;;;0.67;75.91;97890.97;2620295;54;20031;-69
2021/11/29 06:53:19;;;;;;;18.00;10.15;;;;;;;0.70;75.97;97894.09;2620726;54;20030;-68
2021/11/29 06:55:49;;;;;;;20.10;9.70;;;;;;;0.76;76.27;97892.66;2620779;51;20038;-72
2021/11/29 06:58:19;;;;;;;16.05;9.65;;;;;;;0.84;76.29;97892.72;2619200;39;20432;-68
2021/11/29 07:00:49;;;;;;;17.52;9.60;;;;;;;0.87;76.11;97895.00;2618178;39;20441;-68
2021/11/29 07:03:19;;;;;;;17.23;9.82;;;;;;;0.88;75.66;97896.63;2618126;39;20493;-68
2021/11/29 07:05:51;;;;;;;13.93;7.97;;;;;;;0.84;75.25;97913.53;2617936;47;20050;-68
2021/11/29 07:08:23;;;;;;;21.23;10.85;;;;;;;0.76;75.92;97915.25;2618541;54;20030;-68
2021/11/29 07:10:53;;;;;;;17.58;9.50;;;;;;;0.73;75.86;97918.97;2618777;54;20038;-67
2021/11/29 07:13:23;;;;;;;16.80;9.73;;;;;;;0.80;75.65;97927.81;2618510;54;20033;-68
2021/11/29 07:15:53;;;;;;;19.48;10.65;;;;;;;0.83;75.80;97934.50;2618725;54;20053;-68
2021/11/29 07:18:23;;;;;;;20.52;10.95;;;;;;;0.95;76.04;97928.06;2617601;47;20026;-67
2021/11/29 07:20:53;;;;;;;17.05;10.45;;;;;;;0.95;75.76;97936.69;2618390;47;20026;-68
2021/11/29 07:23:25;;;;;;;14.45;9.30;;;;;;;0.96;75.71;97938.31;2617775;47;20042;-68
2021/11/29 07:25:55;;;;;;;13.73;8.77;;;;;;;0.99;75.73;97945.81;2618573;54;20030;-68
2021/11/29 07:28:24;;;;;;;12.65;8.05;;;;;;;1.06;75.59;97947.81;2618518;54;20045;-68
2021/11/29 07:30:54;;;;;;;13.82;7.88;;;;;;;1.04;75.48;97953.19;2618492;54;20038;-68
2021/11/29 07:33:25;;;;;;;12.85;7.85;;;;;;;0.95;75.31;97956.69;2618042;54;20031;-68
2021/11/29 07:35:54;;;;;;;17.63;10.02;;;;;;;0.92;75.61;97959.59;2620464;54;20702;-69
2021/11/29 07:38:27;;;;;;;21.38;8.05;;;;;;;0.94;75.50;97968.91;2624059;54;20041;-67
2021/11/29 07:40:57;;;;;;;14.07;7.75;;;;;;;1.02;75.76;97970.75;2624282;54;20038;-68
2021/11/29 07:43:27;;;;;;;16.67;8.18;;;;;;;1.07;75.70;97978.09;2624177;39;20527;-68
2021/11/29 07:45:57;;;;;;;19.50;7.85;;;;;;;1.06;75.79;97981.66;2623028;54;20041;-68
2021/11/29 07:48:26;;;;;;;15.43;8.88;;;;;;;1.10;75.77;97983.81;2623866;54;20038;-69
2021/11/29 07:50:56;;;;;;;15.75;9.15;;;;;;;1.08;75.25;97985.75;2623932;54;20033;-69
2021/11/29 07:53:28;;;;;;;15.77;10.07;;;;;;;1.08;75.28;97987.53;2623377;54;20030;-67
2021/11/29 07:55:58;;;;;;;22.30;11.68;;;;;;;1.11;75.20;97987.22;2623873;54;20031;-68
2021/11/29 07:58:28;;;;;;;17.20;10.10;;;;;;;1.12;75.02;97984.47;2621158;39;20433;-68
2021/11/29 08:00:58;;;;;;;24.05;11.18;;;;;;;1.17;74.80;97997.03;2619080;54;20035;-69
2021/11/29 08:03:28;;;;;;;18.73;10.25;;;;;;;1.22;75.11;98000.81;2618789;54;20129;-69
2021/11/29 08:05:58;;;;;;;16.80;8.90;;;;;;;1.24;74.64;98006.69;2617488;54;20034;-68
2021/11/29 08:08:30;;;;;;;15.27;9.13;;;;;;;1.27;74.50;97995.16;2617635;54;20046;-67
2021/11/29 08:11:00;;;;;;;13.85;9.38;;;;;;;1.24;74.81;98008.47;2618177;54;20035;-67
2021/11/29 08:13:30;;;;;;;13.70;8.77;;;;;;;1.26;74.46;98009.13;2617413;47;20573;-68
2021/11/29 08:16:00;;;;;;;16.65;8.52;;;;;;;1.28;74.54;98006.38;2618214;54;20561;-68
2021/11/29 08:18:30;;;;;;;17.65;8.30;;;;;;;1.21;73.97;98017.38;2617504;54;20034;-69
2021/11/29 08:20:59;;;;;;;15.80;7.78;;;;;;;1.19;73.79;98018.53;2617501;47;20034;-68
2021/11/29 08:23:32;;;;;;;14.55;7.30;;;;;;;1.16;74.08;98018.81;2617656;47;20150;-68
2021/11/29 08:26:01;;;;;;;12.68;7.90;;;;;;;1.17;74.52;98026.47;2618549;54;20038;-71
2021/11/29 08:28:33;;;;;;;14.40;8.05;;;;;;;1.16;74.17;98029.25;2618449;54;20573;-70
2021/11/29 08:31:03;;;;;;;14.05;7.85;;;;;;;1.18;74.23;98035.09;2617660;54;20030;-68
2021/11/29 08:33:33;;;;;;;12.27;7.88;;;;;;;1.21;74.56;98045.22;2617278;54;20150;-68
2021/11/29 08:36:02;;;;;;;13.27;8.38;;;;;;;1.28;74.49;98054.06;2618223;54;20035;-68
2021/11/29 08:38:38;;;;;;;12.73;7.70;;;;;;;1.32;74.25;98055.38;2618396;47;20026;-69
2021/11/29 08:41:08;;;;;;;14.20;8.20;;;;;;;1.30;74.20;98062.53;2619007;54;20070;-68
2021/11/29 08:43:38;;;;;;;13.25;7.35;;;;;;;1.20;74.25;98062.63;2619108;54;20034;-68
2021/11/29 08:46:08;;;;;;;11.52;7.68;;;;;;;1.17;74.22;98059.50;2619052;54;20042;-67
2021/11/29 08:48:38;;;;;;;16.80;8.60;;;;;;;1.17;74.27;98065.53;2619932;54;20038;-68
2021/11/29 08:51:08;;;;;;;15.15;8.93;;;;;;;1.24;73.97;98070.97;2622390;54;20034;-68
2021/11/29 08:53:40;;;;;;;12.45;8.20;;;;;;;1.30;73.89;98079.94;2622776;39;20421;-68
2021/11/29 08:56:10;;;;;;;12.02;8.35;;;;;;;1.43;73.95;98082.97;2619258;54;20550;-68
2021/11/29 08:58:40;;;;;;;15.18;9.00;;;;;;;1.53;73.50;98080.28;2619176;54;20081;-67
2021/11/29 09:01:10;;;;;;;20.65;9.63;;;;;;;1.67;73.51;98090.97;2618495;54;20027;-67
2021/11/29 09:03:40;;;;;;;15.25;8.65;;;;;;;1.75;73.65;98082.34;2618953;54;20026;-67
2021/11/29 09:06:10;;;;;;;21.52;10.55;;;;;;;1.86;73.04;98086.50;2618936;54;20565;-67
2021/11/29 09:08:43;;;;;;;16.67;9.80;;;;;;;2.08;72.80;98092.94;2619000;54;20030;-67
2021/11/29 09:11:13;;;;;;;18.88;9.85;;;;;;;2.20;72.69;98091.69;2618872;54;20038;-67
2021/11/29 09:13:44;;;;;;;17.48;8.75;;;;;;;2.11;72.19;98084.81;2618250;46;20030;-66
2021/11/29 09:16:17;;;;;;;13.70;8.65;;;;;;;2.08;72.78;98091.19;2618871;54;20042;-66
2021/11/29 09:18:48;;;;;;;15.07;8.52;;;;;;;1.99;72.71;98092.09;2619156;54;20026;-67
2021/11/29 09:21:20;;;;;;;15.18;9.73;;;;;;;1.97;72.90;98091.44;2619133;39;20282;-68
2021/11/29 09:23:53;;;;;;;13.23;8.68;;;;;;;1.94;72.58;98095.16;2619062;54;20050;-67
2021/11/29 09:26:22;;;;;;;18.25;9.30;;;;;;;2.00;72.13;98096.34;2618887;54;20582;-67
2021/11/29 09:28:52;;;;;;;16.73;9.93;;;;;;;1.95;72.09;98103.81;2618050;54;20592;-67
2021/11/29 09:31:24;;;;;;;16.63;9.32;;;;;;;1.85;71.85;98098.72;2618079;54;20034;-68
2021/11/29 09:33:53;;;;;;;14.30;9.48;;;;;;;1.77;72.27;98098.66;2618209;54;20026;-68
2021/11/29 09:36:23;;;;;;;16.52;8.88;;;;;;;1.80;72.80;98107.97;2618551;54;20034;-68
2021/11/29 09:38:55;;;;;;;15.85;9.48;;;;;;;1.86;72.41;98105.56;2619954;39;20097;-69
2021/11/29 09:41:26;;;;;;;15.40;9.40;;;;;;;1.87;72.40;98106.38;2619664;39;20439;-68
2021/11/29 09:43:56;;;;;;;13.63;9.32;;;;;;;1.91;72.12;98111.09;2618654;54;20023;-68
2021/11/29 09:46:26;;;;;;;12.63;8.65;;;;;;;1.86;72.42;98108.16;2618361;54;20031;-67
2021/11/29 09:48:57;;;;;;;14.27;9.25;;;;;;;1.88;72.01;98110.63;2618847;46;20031;-68
2021/11/29 09:51:35;;;;;;;15.45;9.57;;;;;;;2.07;71.95;98114.78;2620351;54;20057;-69
2021/11/29 09:54:10;;;;;;;14.45;9.60;;;;;;;2.26;72.15;98121.56;2620325;54;20037;-68
2021/11/29 09:56:42;;;;;;;14.30;9.40;;;;;;;2.41;71.76;98114.78;2620158;54;20035;-68
2021/11/29 09:59:12;;;;;;;13.98;9.10;;;;;;;2.48;71.75;98119.19;2619517;54;20030;-68
2021/11/29 10:01:41;;;;;;;16.70;10.55;;;;;;;2.56;71.71;98121.00;2618550;54;20031;-69
2021/11/29 10:04:12;;;;;;;13.65;8.63;;;;;;;2.59;71.41;98122.50;2618939;54;20138;-67
2021/11/29 10:06:45;;;;;;;11.20;8.82;;;;;;;2.58;71.00;98126.09;2618915;54;20113;-67
2021/11/29 10:09:36;;;;;;;14.95;9.32;;;;;;;2.53;70.76;98123.97;2618226;46;20023;-67
2021/11/29 10:12:30;;;;;;;13.35;9.20;;;;;;;2.57;70.83;98121.81;2618067;54;20050;-66
2021/11/29 10:15:22;;;;;;;16.67;9.05;;;;;;;2.69;70.62;98117.94;2618682;54;20057;-67
2021/11/29 10:17:55;;;;;;;11.68;9.07;;;;;;;2.81;71.27;98121.09;2618138;47;20121;-67
2021/11/29 10:20:55;;;;;;;15.48;9.05;;;;;;;2.81;70.67;98119.28;2619023;54;20026;-67
2021/11/29 10:23:35;;;;;;;20.08;14.23;;;;;;;2.76;70.20;98123.34;2618596;54;20073;-67
2021/11/29 10:26:10;;;;;;;17.38;9.60;;;;;;;2.71;70.63;98124.66;2618848;54;20026;-68
2021/11/29 10:28:43;;;;;;;17.70;9.93;;;;;;;2.73;71.10;98129.69;2619104;39;20430;-68
2021/11/29 10:31:31;;;;;;;13.25;9.38;;;;;;;2.81;71.53;98127.13;2618611;54;20067;-69
2021/11/29 10:34:05;;;;;;;15.38;11.48;;;;;;;2.88;70.92;98130.72;2618195;54;20057;-70
2021/11/29 10:36:42;;;;;;;16.55;9.40;;;;;;;3.00;71.14;98122.59;2618754;54;20038;-70
2021/11/29 10:39:22;;;;;;;13.30;9.07;;;;;;;3.12;70.84;98126.53;2618526;46;20057;-70
2021/11/29 10:41:59;;;;;;;14.15;8.60;;;;;;;3.30;70.15;98114.13;2618515;54;20081;-69
2021/11/29 10:44:31;;;;;;;16.77;9.77;;;;;;;3.39;70.35;98122.81;2618826;54;20034;-69
2021/11/29 10:47:02;;;;;;;10.98;8.35;;;;;;;3.41;70.05;98120.81;2618388;54;20073;-69
2021/11/29 10:49:37;;;;;;;19.77;9.77;;;;;;;3.36;70.16;98120.50;2618809;54;20549;-69
2021/11/29 10:52:08;;;;;;;11.32;7.85;;;;;;;3.40;69.82;98129.66;2618537;54;20053;-68
2021/11/29 10:54:40;;;;;;;11.10;7.63;;;;;;;3.31;69.42;98120.19;2617025;54;20050;-69
2021/11/29 10:57:14;;;;;;;13.25;7.72;;;;;;;3.29;69.77;98132.56;2618143;54;20035;-68
2021/11/29 10:59:47;;;;;;;12.85;7.65;;;;;;;3.26;69.26;98127.66;2618949;54;20034;-68
2021/11/29 11:02:23;;;;;;;14.18;8.88;;;;;;;3.19;69.74;98128.34;2618351;54;20046;-68
2021/11/29 11:05:06;;;;;;;13.85;7.30;;;;;;;3.09;69.32;98135.50;2618517;54;20045;-68
2021/11/29 11:07:38;;;;;;;9.30;6.20;;;;;;;3.00;69.45;98141.69;2619439;39;20441;-69
2021/11/29 11:10:13;;;;;;;10.38;6.82;;;;;;;3.01;69.64;98147.72;2618874;39;20422;-68
2021/11/29 11:12:48;;;;;;;11.18;6.90;;;;;;;2.98;69.71;98141.03;2618279;47;20035;-68
2021/11/29 11:15:19;;;;;;;;;;;;;;;3.00;69.61;98149.53;2618750;54;20073;-68
2021/11/29 11:18:07;;;;;;;7.93;5.63;;;;;;;3.00;69.75;98146.09;2618174;47;20054;-68
2021/11/29 11:20:36;;;;;;;10.15;5.95;;;;;;;3.04;69.76;98148.22;2618675;54;20103;-69
2021/11/29 11:23:06;;;;;;;8.43;5.68;;;;;;;3.04;69.58;98147.41;2618446;46;20061;-69
2021/11/29 11:25:42;;;;;;;9.55;6.13;;;;;;;3.10;69.28;98149.38;2618505;54;20046;-70
2021/11/29 11:28:15;;;;;;;8.95;5.38;;;;;;;3.06;69.32;98148.06;2620129;54;20038;-69
2021/11/29 11:30:46;;;;;;;15.32;7.10;;;;;;;3.05;69.47;98147.25;2623396;54;20582;-69
2021/11/29 11:33:20;;;;;;;10.27;7.22;;;;;;;3.08;69.75;98149.53;2619380;54;20027;-69
2021/11/29 11:35:53;;;;;;;10.15;6.28;;;;;;;3.11;69.74;98151.03;2618667;54;20042;-69
2021/11/29 11:38:26;;;;;;;9.73;6.53;;;;;;;3.05;69.27;98149.03;2618030;51;20034;-69
2021/11/29 11:40:59;;;;;;;12.13;6.97;;;;;;;3.01;69.49;98145.91;2618435;54;20034;-69
2021/11/29 11:43:31;;;;;;;12.48;7.25;;;;;;;3.04;69.77;98147.41;2618664;31;20503;-69
2021/11/29 11:46:01;;;;;;;11.88;7.47;;;;;;;3.12;69.27;98147.41;2618360;54;20060;-68
2021/11/29 11:48:32;;;;;;;11.85;7.50;;;;;;;3.13;69.31;98144.63;2618401;54;20554;-68